Time;durP1;ratioP1;P1;durP2;ratioP2;P2;SDS_P1;SDS_P2;PMS_P1;PMS_P2;Temp;Humidity;BMP_temperature;BMP_pressure;BME280_temperature;BME280_humidity;BME280_pressure;Samples;Min_cycle;Max_cycle;Signal;HPM_P1;HPM_P2
2023/09/11 00:01:20;;;;;;;9.98;7.75;;;20.50;94.10;;;;;;4965978;29;20364;-77
2023/09/11 00:03:48;;;;;;;9.30;7.53;;;20.50;94.30;;;;;;4947961;29;20042;-77
2023/09/11 00:06:14;;;;;;;12.27;7.97;;;20.50;94.50;;;;;;4946411;29;20059;-77
2023/09/11 00:08:40;;;;;;;10.02;7.80;;;20.50;94.60;;;;;;4946873;29;20209;-77
2023/09/11 00:11:05;;;;;;;12.82;9.07;;;20.50;94.10;;;;;;4946130;29;20039;-77
2023/09/11 00:13:31;;;;;;;10.45;7.88;;;20.50;94.30;;;;;;4929670;29;20024;-77
2023/09/11 00:15:57;;;;;;;10.50;8.05;;;20.60;93.80;;;;;;4929751;29;20043;-76
2023/09/11 00:18:23;;;;;;;10.43;7.07;;;20.60;94.20;;;;;;4946061;29;20338;-76
2023/09/11 00:20:49;;;;;;;10.98;7.57;;;20.60;94.00;;;;;;4929259;29;20207;-75
2023/09/11 00:23:15;;;;;;;10.75;8.00;;;20.70;95.10;;;;;;4945779;29;20137;-78
2023/09/11 00:25:41;;;;;;;10.25;7.97;;;20.60;95.40;;;;;;4946369;29;20345;-75
2023/09/11 00:28:06;;;;;;;9.98;7.65;;;20.60;95.90;;;;;;4945478;29;20042;-76
2023/09/11 00:30:32;;;;;;;10.55;7.72;;;20.40;94.20;;;;;;4946035;29;20317;-76
2023/09/11 05:41:31;;;;;;;13.90;9.10;;;18.20;99.90;;;;;;5961214;23;20019;31
2023/09/11 05:44:06;;;;;;;18.10;10.63;;;18.30;99.90;;;;;;4906780;29;20048;-77
2023/09/11 05:46:32;;;;;;;15.05;9.65;;;18.40;99.90;;;;;;4890689;29;20037;-77
2023/09/11 05:48:58;;;;;;;17.38;9.65;;;18.50;99.90;;;;;;4889239;29;20211;-77
2023/09/11 05:51:23;;;;;;;12.70;9.70;;;18.50;99.90;;;;;;4907392;29;20031;-78
2023/09/11 05:53:52;;;;;;;14.57;9.98;;;18.60;99.90;;;;;;4890876;29;20104;-79
2023/09/11 05:56:18;;;;;;;14.40;9.40;;;18.70;99.90;;;;;;4907022;29;20191;-78
2023/09/11 05:58:47;;;;;;;13.75;9.82;;;18.80;99.90;;;;;;4905167;29;20085;-78
2023/09/11 06:01:24;;;;;;;14.63;9.73;;;18.80;99.90;;;;;;4890274;29;20291;-78
2023/09/11 06:04:30;;;;;;;16.67;9.52;;;18.90;99.90;;;;;;4888683;29;20045;-78
2023/09/11 06:07:19;;;;;;;17.60;10.73;;;19.10;99.90;;;;;;4883028;29;20077;-76
2023/09/11 06:09:47;;;;;;;16.67;10.02;;;19.20;99.90;;;;;;4877949;29;20240;-78
2023/09/11 06:16:50;;;;;;;18.75;10.90;;;19.30;99.90;;;;;;4829892;29;20097;-77
2023/09/11 06:23:58;;;;;;;16.45;10.02;;;19.70;99.90;;;;;;4812125;29;20042;-77
2023/09/11 06:33:07;;;;;;;21.63;10.10;;;19.80;99.90;;;;;;4778679;30;20206;-80
2023/09/11 06:35:35;;;;;;;16.10;9.68;;;19.90;99.90;;;;;;4764987;30;20162;-77
2023/09/11 06:38:01;;;;;;;15.48;9.23;;;20.00;99.90;;;;;;4791553;30;20088;-78
2023/09/11 06:40:27;;;;;;;12.00;8.32;;;20.10;99.90;;;;;;4783020;30;20051;-76
2023/09/11 06:42:53;;;;;;;18.77;10.68;;;20.20;99.90;;;;;;4816628;29;20042;-77
2023/09/11 06:45:39;;;;;;;15.40;9.00;;;20.30;99.90;;;;;;4833582;29;20034;-77
2023/09/11 06:48:08;;;;;;;17.08;9.18;;;20.40;99.90;;;;;;4834412;29;20060;-77
2023/09/11 06:50:36;;;;;;;15.35;9.35;;;20.50;99.90;;;;;;4829557;29;20075;-77
2023/09/11 06:53:15;;;;;;;12.73;9.13;;;20.60;99.90;;;;;;4852283;29;20034;-78
2023/09/11 06:55:53;;;;;;;11.98;8.90;;;20.80;99.90;;;;;;4836506;29;20045;-77
2023/09/11 06:58:31;;;;;;;13.27;9.30;;;20.90;99.90;;;;;;4852256;29;20026;-77
2023/09/11 07:00:57;;;;;;;14.27;8.75;;;20.90;99.90;;;;;;4852289;29;20053;-78
2023/09/11 07:03:28;;;;;;;16.13;8.68;;;21.00;99.90;;;;;;4852719;29;20049;-78
2023/09/11 07:05:54;;;;;;;;;;;21.10;99.90;;;;;;4852782;29;20243;-79
2023/09/11 07:08:45;;;;;;;14.63;9.55;;;21.10;99.90;;;;;;4852369;29;19983;-79
2023/09/11 07:11:22;;;;;;;13.90;9.25;;;21.20;99.90;;;;;;4835063;29;20358;-77
2023/09/11 07:14:32;;;;;;;18.95;9.70;;;21.10;99.90;;;;;;4836265;29;20038;-78
2023/09/11 07:17:03;;;;;;;15.85;9.82;;;21.20;99.90;;;;;;4847800;29;20054;-76
2023/09/11 07:19:33;;;;;;;16.13;10.02;;;21.30;99.90;;;;;;4835322;29;20033;-76
2023/09/11 07:21:59;;;;;;;13.77;9.52;;;21.30;99.90;;;;;;4855716;29;20354;-76
2023/09/11 07:24:50;;;;;;;15.35;10.73;;;21.40;99.90;;;;;;4872027;29;20121;-77
2023/09/11 07:27:36;;;;;;;14.10;9.50;;;21.50;99.90;;;;;;4852992;29;20342;-76
2023/09/11 07:30:11;;;;;;;14.25;9.52;;;21.60;99.60;;;;;;4871949;29;20046;-75
2023/09/11 07:32:43;;;;;;;18.92;10.10;;;21.70;99.40;;;;;;4876799;29;20029;-77
2023/09/11 07:35:17;;;;;;;20.05;10.68;;;21.90;99.10;;;;;;4890731;29;20037;-77
2023/09/11 07:37:48;;;;;;;18.27;10.00;;;22.00;98.70;;;;;;4888570;29;20043;-77
2023/09/11 07:40:17;;;;;;;16.60;10.00;;;22.10;98.40;;;;;;4866169;29;20052;-77
2023/09/11 07:42:43;;;;;;;20.23;10.55;;;22.20;98.10;;;;;;4871485;29;20071;-77
2023/09/11 07:45:09;;;;;;;17.15;9.32;;;22.20;98.10;;;;;;4839845;29;20314;-78
2023/09/11 07:47:35;;;;;;;16.98;9.10;;;22.30;97.70;;;;;;4870753;29;20056;-77
2023/09/11 07:50:06;;;;;;;12.75;8.85;;;22.40;97.70;;;;;;4858270;29;20168;-79
2023/09/11 07:52:41;;;;;;;15.23;8.75;;;22.50;97.30;;;;;;4889413;29;20048;-78
2023/09/11 07:55:10;;;;;;;13.35;9.38;;;22.60;97.00;;;;;;4889510;29;20040;-78
2023/09/11 07:57:39;;;;;;;16.40;10.95;;;22.80;96.70;;;;;;4873425;29;20029;-79
2023/09/11 08:00:30;;;;;;;18.40;9.85;;;22.80;96.50;;;;;;4888651;29;20081;-77
2023/09/11 08:03:03;;;;;;;18.88;9.50;;;22.90;96.40;;;;;;4855796;29;20022;-79
2023/09/11 08:05:33;;;;;;;13.15;8.60;;;23.00;95.90;;;;;;4856889;29;20057;-78
2023/09/11 08:08:01;;;;;;;18.30;8.57;;;23.10;95.70;;;;;;4890018;29;20203;-77
2023/09/11 08:11:15;;;;;;;12.88;7.82;;;23.20;95.60;;;;;;4869213;29;20064;-77
2023/09/11 08:14:24;;;;;;;15.57;8.70;;;23.30;95.30;;;;;;4853506;29;20048;-77
2023/09/11 08:16:50;;;;;;;13.90;8.80;;;23.50;95.00;;;;;;4868964;29;20068;-78
2023/09/11 08:19:30;;;;;;;16.58;8.02;;;23.70;94.50;;;;;;4854071;29;20026;-78
2023/09/11 08:25:59;;;;;;;12.05;8.10;;;23.90;94.00;;;;;;4851104;29;20236;-77
2023/09/11 08:29:18;;;;;;;11.85;7.85;;;24.10;93.80;;;;;;4866374;29;20272;-76
2023/09/11 08:31:47;;;;;;;13.57;7.90;;;24.20;93.30;;;;;;4818555;29;20074;-77
2023/09/11 08:34:16;;;;;;;12.63;8.15;;;24.30;92.90;;;;;;4867968;29;20112;-77
2023/09/11 08:37:00;;;;;;;9.93;7.50;;;24.40;92.90;;;;;;4868978;29;20117;-78
2023/09/11 08:39:50;;;;;;;13.25;7.60;;;24.50;92.70;;;;;;4832296;29;20093;-75
2023/09/11 08:42:18;;;;;;;11.98;7.72;;;24.60;92.50;;;;;;4841575;29;20292;-78
2023/09/11 08:44:44;;;;;;;15.10;8.05;;;24.70;92.00;;;;;;4835067;29;20048;-77
2023/09/11 08:47:17;;;;;;;13.23;8.32;;;24.90;92.10;;;;;;4835146;29;20069;-77
2023/09/11 08:49:54;;;;;;;13.02;7.93;;;25.00;91.70;;;;;;4834745;29;20060;-78
2023/09/11 08:52:19;;;;;;;13.15;7.50;;;25.10;91.30;;;;;;4835559;29;20129;-77
2023/09/11 08:54:59;;;;;;;11.40;7.55;;;25.20;91.00;;;;;;4834775;29;20039;-78
2023/09/11 08:57:31;;;;;;;13.75;7.05;;;25.30;90.60;;;;;;4834676;29;20324;-78
2023/09/11 09:00:19;;;;;;;15.02;7.80;;;25.40;90.20;;;;;;4835306;29;20037;-80
2023/09/11 09:02:50;;;;;;;11.10;6.63;;;25.40;90.00;;;;;;4834221;29;20053;-78
2023/09/11 09:05:19;;;;;;;15.52;7.40;;;25.60;88.80;;;;;;4834864;29;20343;-78
2023/09/11 09:07:46;;;;;;;18.50;7.80;;;25.60;89.00;;;;;;4834748;29;20030;-78
2023/09/11 09:10:15;;;;;;;12.85;7.50;;;25.70;88.90;;;;;;4866018;29;20037;-78
2023/09/11 09:24:24;;;;;;;11.40;6.95;;;26.10;87.20;;;;;;5224527;23;20051;-77
2023/09/11 09:27:07;;;;;;;14.68;7.15;;;26.10;85.90;;;;;;4928137;29;20098;-78
2023/09/11 09:30:20;;;;;;;15.00;7.07;;;26.20;86.30;;;;;;4928718;29;20313;-80
2023/09/11 09:44:44;;;;;;;11.00;6.30;;;26.70;83.40;;;;;;5489082;23;20236;-77
2023/09/11 09:47:22;;;;;;;14.57;6.88;;;26.80;84.10;;;;;;4931596;29;20035;-76
2023/09/11 09:49:54;;;;;;;8.68;6.95;;;26.90;83.50;;;;;;4931034;29;20273;-77
2023/09/11 09:52:53;;;;;;;11.27;6.72;;;27.10;83.10;;;;;;4964210;29;20035;-77
2023/09/11 09:55:19;;;;;;;13.57;6.18;;;27.10;82.50;;;;;;4889676;29;20067;-78
2023/09/11 09:57:46;;;;;;;14.65;6.90;;;27.30;82.10;;;;;;4889335;29;20222;-76
2023/09/11 10:00:16;;;;;;;10.65;6.38;;;27.40;81.90;;;;;;4889639;29;20028;-77
2023/09/11 10:02:45;;;;;;;8.93;5.80;;;27.40;81.50;;;;;;4889408;29;20222;-78
2023/09/11 10:05:11;;;;;;;8.55;6.05;;;27.60;80.20;;;;;;4894813;29;20115;-79
2023/09/11 10:07:43;;;;;;;10.90;6.47;;;27.60;79.50;;;;;;4906092;29;20067;-79
2023/09/11 10:10:28;;;;;;;11.40;5.25;;;27.70;78.20;;;;;;4908676;29;20040;-77
2023/09/11 10:13:07;;;;;;;12.43;6.05;;;27.80;77.70;;;;;;4908485;29;20048;-82
2023/09/11 10:15:56;;;;;;;8.75;5.43;;;27.90;77.40;;;;;;4909011;29;20037;-78
2023/09/11 10:18:23;;;;;;;8.05;5.13;;;28.00;76.60;;;;;;4893090;29;20033;-78
2023/09/11 10:20:50;;;;;;;8.48;5.38;;;28.10;75.60;;;;;;4908460;29;20040;-79
2023/09/11 10:23:16;;;;;;;7.88;5.68;;;28.30;74.90;;;;;;4904067;29;20027;-78
2023/09/11 10:25:57;;;;;;;9.35;5.65;;;28.40;75.20;;;;;;4892083;29;20029;-77
2023/09/11 10:28:35;;;;;;;9.73;4.97;;;28.50;73.70;;;;;;4877649;29;20358;-77
2023/09/11 10:31:16;;;;;;;9.43;5.20;;;28.50;72.70;;;;;;4922456;29;20035;-77
2023/09/11 10:33:50;;;;;;;9.77;4.30;;;28.60;72.00;;;;;;4961568;29;20030;-78
2023/09/11 10:36:22;;;;;;;9.35;4.65;;;28.80;70.70;;;;;;4935052;29;20031;-78
2023/09/11 10:38:50;;;;;;;8.98;4.30;;;28.90;70.80;;;;;;4934395;29;20024;-77
2023/09/11 10:41:16;;;;;;;7.65;3.83;;;29.10;68.20;;;;;;4935005;28;20051;-77
2023/09/11 10:43:45;;;;;;;8.25;4.22;;;29.20;66.50;;;;;;4950127;29;20028;-75
2023/09/11 10:46:19;;;;;;;8.55;4.28;;;29.20;67.70;;;;;;4971593;28;20045;-80
2023/09/11 10:48:45;;;;;;;11.73;4.75;;;29.40;67.10;;;;;;4966615;29;20035;-77
2023/09/11 10:51:16;;;;;;;9.15;4.68;;;29.60;67.20;;;;;;4949818;29;20042;-76
2023/09/11 10:53:42;;;;;;;12.13;4.97;;;29.70;67.40;;;;;;4949697;29;20039;-79
2023/09/11 10:56:10;;;;;;;12.23;4.85;;;29.90;67.00;;;;;;4967340;29;20054;-78
2023/09/11 10:58:40;;;;;;;13.32;5.07;;;30.10;67.50;;;;;;4966480;28;20025;-80
2023/09/11 11:01:35;;;;;;;9.07;4.97;;;30.00;67.70;;;;;;4966032;29;20046;-78
2023/09/11 11:04:14;;;;;;;10.70;5.03;;;30.30;67.40;;;;;;4962026;29;20034;-76
2023/09/11 11:06:45;;;;;;;9.82;5.13;;;30.70;66.90;;;;;;4961225;29;20035;-80
2023/09/11 11:09:32;;;;;;;9.65;4.80;;;31.10;66.00;;;;;;4934023;29;20223;-79
2023/09/11 11:12:08;;;;;;;11.20;4.88;;;31.60;64.30;;;;;;4963652;29;20383;-80
2023/09/11 11:14:34;;;;;;;9.60;4.25;;;32.40;62.90;;;;;;4946589;29;20314;-78
2023/09/11 11:17:10;;;;;;;9.07;4.72;;;33.10;62.10;;;;;;4946859;29;20035;-76
2023/09/11 11:19:50;;;;;;;7.68;4.15;;;33.70;60.20;;;;;;4962546;28;20031;-77
2023/09/11 11:22:30;;;;;;;8.05;4.90;;;34.90;59.10;;;;;;4967833;29;20074;-78
2023/09/11 11:24:59;;;;;;;7.07;4.00;;;36.10;57.70;;;;;;4967563;29;20035;-78
2023/09/11 11:27:26;;;;;;;8.52;4.10;;;36.90;56.40;;;;;;4950849;29;20051;-79
2023/09/11 11:29:54;;;;;;;8.07;3.67;;;37.60;55.20;;;;;;4966867;29;20046;-82
2023/09/11 11:32:22;;;;;;;8.80;4.38;;;38.40;54.60;;;;;;4968012;29;20051;-79
2023/09/11 11:34:50;;;;;;;7.00;3.85;;;39.10;53.60;;;;;;4949755;29;20399;-77
2023/09/11 11:37:20;;;;;;;6.60;4.20;;;39.40;52.30;;;;;;4965906;29;20110;-82
2023/09/11 11:39:47;;;;;;;6.20;3.88;;;39.70;52.20;;;;;;4966494;29;20035;-79
2023/09/11 11:42:14;;;;;;;;;;;39.90;51.70;;;;;;4961853;28;20102;-81
2023/09/11 11:44:40;;;;;;;10.35;4.50;;;40.30;51.00;;;;;;4944117;28;19985;-82
2023/09/11 11:47:07;;;;;;;9.85;3.97;;;40.70;50.70;;;;;;4969048;28;20136;-78
2023/09/11 11:49:37;;;;;;;7.75;4.10;;;40.40;50.40;;;;;;4986632;28;20027;-77
2023/09/11 11:52:04;;;;;;;13.13;4.13;;;40.90;50.10;;;;;;4965383;29;20274;-78
2023/09/11 11:54:33;;;;;;;7.93;4.13;;;41.10;50.30;;;;;;4950732;29;20102;-79
2023/09/11 11:57:28;;;;;;;7.25;3.97;;;41.40;49.70;;;;;;4967177;29;20035;-80
2023/09/11 11:59:54;;;;;;;5.07;3.60;;;41.60;49.30;;;;;;4966887;29;20055;-80
2023/09/11 12:03:04;;;;;;;7.10;3.60;;;41.40;49.70;;;;;;4950432;29;20011;-79
2023/09/11 12:05:30;;;;;;;7.60;3.92;;;41.80;49.00;;;;;;4963624;28;20051;-80
2023/09/11 12:07:56;;;;;;;7.80;3.53;;;42.10;48.70;;;;;;4952585;28;20299;-76
2023/09/11 12:10:29;;;;;;;5.90;3.85;;;42.40;48.00;;;;;;4985493;28;20081;-79
2023/09/11 12:12:56;;;;;;;5.97;3.92;;;42.20;47.90;;;;;;4968266;28;20077;-77
2023/09/11 12:15:22;;;;;;;9.00;3.60;;;41.70;48.70;;;;;;4982512;28;20102;-80
2023/09/11 12:17:49;;;;;;;5.95;3.70;;;41.80;48.20;;;;;;4966078;29;20027;-84
2023/09/11 12:20:21;;;;;;;7.68;3.60;;;42.10;48.00;;;;;;4966702;29;20221;-79
2023/09/11 12:22:54;;;;;;;7.50;3.47;;;42.00;48.00;;;;;;4966828;29;20039;-80
2023/09/11 12:25:27;;;;;;;6.88;3.40;;;42.10;47.70;;;;;;4949421;29;20046;-83
2023/09/11 12:27:54;;;;;;;6.43;3.40;;;42.80;48.10;;;;;;4965700;29;20059;-76
2023/09/11 12:30:20;;;;;;;7.50;3.60;;;43.80;46.70;;;;;;4949402;29;20233;-81
2023/09/11 12:32:47;;;;;;;4.87;3.40;;;44.10;46.60;;;;;;4955664;28;20038;-80
2023/09/11 12:35:12;;;;;;;7.30;3.50;;;44.50;45.80;;;;;;4952925;28;20057;-79
2023/09/11 12:37:45;;;;;;;6.32;3.28;;;44.70;45.80;;;;;;4985813;28;20034;-79
2023/09/11 12:40:30;;;;;;;8.00;3.90;;;45.10;45.30;;;;;;4985851;28;20111;-79
2023/09/11 12:42:56;;;;;;;8.38;3.65;;;45.50;45.00;;;;;;4985052;28;20089;-80
2023/09/11 12:45:21;;;;;;;5.93;3.37;;;45.30;44.80;;;;;;4980485;28;20059;-77
2023/09/11 12:47:48;;;;;;;5.32;3.40;;;45.20;45.20;;;;;;4966345;28;20107;-81
2023/09/11 12:50:13;;;;;;;7.93;3.33;;;45.00;44.70;;;;;;4950378;29;20038;-80
2023/09/11 12:52:39;;;;;;;9.20;3.80;;;44.90;44.80;;;;;;4966181;29;20070;-78
2023/09/11 12:55:05;;;;;;;7.15;3.17;;;45.20;44.70;;;;;;4964958;29;20027;-81
2023/09/11 12:57:31;;;;;;;10.32;4.32;;;45.20;44.20;;;;;;4965591;29;20034;-80
2023/09/11 12:59:58;;;;;;;8.55;3.53;;;45.60;44.30;;;;;;4965244;29;20039;-80
2023/09/11 13:02:31;;;;;;;5.38;3.22;;;45.80;43.70;;;;;;4948968;29;20019;-78
2023/09/11 13:04:58;;;;;;;6.55;3.10;;;46.40;43.70;;;;;;4928777;29;20038;-79
2023/09/11 13:07:24;;;;;;;8.55;3.63;;;46.00;43.30;;;;;;4929581;29;20048;-81
2023/09/11 13:09:50;;;;;;;4.53;3.17;;;46.90;43.20;;;;;;4946233;29;20095;-78
2023/09/11 13:12:16;;;;;;;7.33;3.10;;;47.20;42.70;;;;;;4946756;29;20019;-79
2023/09/11 13:14:42;;;;;;;10.20;3.27;;;47.10;42.80;;;;;;4946984;29;20040;-78
2023/09/11 13:17:13;;;;;;;6.20;3.15;;;47.30;42.40;;;;;;4945049;29;20091;-80
2023/09/11 13:19:39;;;;;;;5.43;3.25;;;47.50;42.30;;;;;;4945760;29;20193;-78
2023/09/11 13:22:05;;;;;;;5.93;3.37;;;47.60;42.40;;;;;;4928675;29;20023;-78
2023/09/11 13:24:31;;;;;;;7.13;3.23;;;48.10;41.90;;;;;;4913600;29;20043;-79
2023/09/11 13:26:56;;;;;;;10.20;3.53;;;48.10;42.20;;;;;;4913190;29;20024;-80
2023/09/11 13:29:22;;;;;;;6.33;3.60;;;47.40;42.20;;;;;;4913406;29;20038;-81
2023/09/11 13:31:48;;;;;;;9.13;3.27;;;46.60;42.30;;;;;;4928431;29;20035;-77
2023/09/11 13:34:14;;;;;;;6.53;3.47;;;46.50;42.90;;;;;;4963963;29;20035;-79
2023/09/11 13:36:53;;;;;;;7.63;3.15;;;46.50;43.40;;;;;;4950421;29;20046;-80
2023/09/11 13:39:19;;;;;;;6.60;3.17;;;46.30;42.10;;;;;;4931832;29;20031;-78
2023/09/11 13:42:00;;;;;;;7.68;3.35;;;46.60;42.20;;;;;;4931535;29;20058;-81
2023/09/11 13:44:26;;;;;;;6.03;3.28;;;47.50;42.20;;;;;;4945013;29;20044;-81
2023/09/11 13:46:56;;;;;;;5.17;3.33;;;47.90;42.00;;;;;;4945079;29;20051;-78
2023/09/11 13:49:25;;;;;;;5.95;3.13;;;47.70;41.60;;;;;;4945474;29;20032;-79
2023/09/11 13:51:53;;;;;;;7.88;3.28;;;47.10;41.90;;;;;;4961982;29;20023;-76
2023/09/11 13:54:23;;;;;;;6.22;3.38;;;47.10;41.90;;;;;;4965055;29;20070;-80
2023/09/11 13:56:51;;;;;;;9.18;3.22;;;47.80;41.80;;;;;;4964264;29;20047;-80
2023/09/11 13:59:23;;;;;;;8.30;3.25;;;47.80;40.90;;;;;;4947522;29;20015;-77
2023/09/11 14:02:04;;;;;;;8.38;3.30;;;47.40;41.50;;;;;;4932964;29;20047;-78
2023/09/11 14:04:36;;;;;;;8.40;3.45;;;47.20;41.40;;;;;;4958830;28;20102;-78
2023/09/11 14:07:03;;;;;;;8.13;3.10;;;47.10;41.50;;;;;;4946828;29;20082;-78
2023/09/11 14:09:31;;;;;;;7.15;3.08;;;48.40;41.20;;;;;;4964360;29;20062;-77
2023/09/11 14:12:12;;;;;;;6.43;3.22;;;48.70;41.40;;;;;;4947346;29;20082;-79
2023/09/11 14:14:42;;;;;;;10.43;3.25;;;48.60;40.90;;;;;;4947107;29;20036;-79
2023/09/11 14:17:08;;;;;;;8.57;3.38;;;48.80;40.70;;;;;;4963888;29;20035;-77
2023/09/11 14:20:17;;;;;;;9.97;3.30;;;48.90;40.10;;;;;;4964769;29;20086;-78
2023/09/11 14:22:50;;;;;;;6.75;3.17;;;49.30;40.10;;;;;;4931972;29;20031;-79
2023/09/11 14:25:18;;;;;;;7.40;3.15;;;48.70;40.40;;;;;;4953762;28;20059;-78
2023/09/11 14:27:44;;;;;;;8.55;3.00;;;49.30;40.30;;;;;;4928790;29;20071;-78
2023/09/11 14:30:28;;;;;;;6.83;3.00;;;49.30;40.50;;;;;;4943273;29;20035;-77
2023/09/11 14:33:23;;;;;;;6.95;3.00;;;49.40;40.70;;;;;;4950193;29;20090;-76
2023/09/11 14:35:58;;;;;;;9.52;3.25;;;49.80;40.10;;;;;;4944805;29;20048;-77
2023/09/11 14:38:57;;;;;;;8.60;3.20;;;49.60;39.80;;;;;;4955594;29;20059;-76
2023/09/11 14:41:26;;;;;;;8.18;3.33;;;49.40;40.70;;;;;;4947280;29;20059;-78
2023/09/11 14:43:52;;;;;;;7.97;3.10;;;49.10;40.10;;;;;;4947280;29;20035;-78
2023/09/11 14:46:27;;;;;;;6.67;3.23;;;48.10;40.50;;;;;;4948922;28;20035;-77
2023/09/11 14:49:02;;;;;;;8.38;3.33;;;48.20;40.70;;;;;;4945067;29;20039;-79
2023/09/11 14:51:37;;;;;;;8.15;3.40;;;48.50;40.60;;;;;;4970670;28;20020;-80
2023/09/11 14:54:05;;;;;;;8.90;3.95;;;48.90;40.60;;;;;;4958397;29;20055;-78
2023/09/11 14:57:06;;;;;;;8.93;4.28;;;48.90;40.20;;;;;;4967438;29;20043;-79
2023/09/11 14:59:32;;;;;;;6.63;3.13;;;48.90;39.90;;;;;;4908268;29;20045;-79
2023/09/11 15:01:57;;;;;;;7.87;3.50;;;48.70;40.40;;;;;;4954596;29;20091;-77
2023/09/11 15:04:23;;;;;;;6.07;3.30;;;49.30;40.30;;;;;;4967776;29;20046;-78
2023/09/11 15:06:49;;;;;;;6.87;3.27;;;49.60;40.10;;;;;;4930872;29;20062;-80
2023/09/11 15:09:15;;;;;;;6.67;4.03;;;50.00;39.80;;;;;;4923382;29;20031;-77
2023/09/11 15:11:43;;;;;;;11.73;4.03;;;50.30;39.90;;;;;;4948819;29;20031;-79
2023/09/11 15:14:09;;;;;;;8.43;3.58;;;50.50;39.30;;;;;;4965828;29;20045;-77
2023/09/11 15:16:34;;;;;;;8.35;3.22;;;50.40;39.20;;;;;;4950952;29;20027;-75
2023/09/11 15:19:07;;;;;;;6.72;3.13;;;50.00;39.00;;;;;;4949887;29;20368;-78
2023/09/11 15:21:33;;;;;;;7.75;3.60;;;49.80;39.40;;;;;;4967598;28;20116;-77
2023/09/11 15:24:02;;;;;;;7.65;3.10;;;49.40;39.30;;;;;;4966519;29;20341;-77
2023/09/11 15:26:31;;;;;;;7.50;3.00;;;49.10;40.00;;;;;;4967251;29;20035;-80
2023/09/11 15:28:57;;;;;;;8.38;3.63;;;48.30;40.50;;;;;;4949432;29;20027;-80
2023/09/11 15:31:26;;;;;;;9.10;3.30;;;48.50;40.20;;;;;;4966739;29;20226;-77
2023/09/11 15:33:54;;;;;;;5.40;3.15;;;48.80;40.90;;;;;;4966499;29;20039;-79
2023/09/11 15:36:20;;;;;;;7.32;3.42;;;48.70;40.20;;;;;;4934245;29;20031;-79
2023/09/11 15:38:46;;;;;;;7.10;3.43;;;48.70;40.10;;;;;;4967030;29;20156;-78
2023/09/11 15:41:14;;;;;;;8.07;3.33;;;49.40;40.40;;;;;;4966266;29;20247;-79
2023/09/11 15:43:44;;;;;;;6.90;4.07;;;49.60;39.80;;;;;;4966453;29;20103;-76
2023/09/11 15:46:13;;;;;;;8.43;3.30;;;49.00;40.00;;;;;;4950340;29;20073;-78
2023/09/11 15:48:40;;;;;;;8.10;3.53;;;48.20;40.80;;;;;;4966696;29;20065;-77
2023/09/11 15:51:07;;;;;;;5.03;3.00;;;47.80;40.70;;;;;;4933304;29;20022;-79
2023/09/11 15:53:34;;;;;;;7.47;3.50;;;47.30;41.20;;;;;;4966423;29;20042;-77
2023/09/11 15:56:01;;;;;;;7.70;3.47;;;46.30;41.30;;;;;;4965837;29;20035;-76
2023/09/11 15:58:38;;;;;;;7.55;3.53;;;45.60;42.30;;;;;;4945978;29;20062;-78
2023/09/11 16:01:04;;;;;;;7.22;3.28;;;44.70;42.30;;;;;;4958264;29;20066;-82
2023/09/11 16:03:39;;;;;;;8.50;3.97;;;44.70;42.90;;;;;;4966465;29;20027;-79
2023/09/11 16:06:05;;;;;;;7.22;3.63;;;43.90;43.40;;;;;;4947903;29;20151;-77
2023/09/11 16:08:30;;;;;;;7.60;4.07;;;44.20;44.10;;;;;;4949335;29;20083;-75
2023/09/11 16:10:56;;;;;;;8.30;3.55;;;44.40;43.50;;;;;;4965793;29;20058;-75
2023/09/11 16:13:22;;;;;;;7.70;3.67;;;44.20;43.00;;;;;;4933406;29;20023;-81
2023/09/11 16:16:13;;;;;;;10.93;3.63;;;43.40;44.00;;;;;;4952577;29;20050;-77
2023/09/11 16:18:53;;;;;;;7.28;3.63;;;43.30;44.20;;;;;;4949516;29;20321;-79
2023/09/11 16:21:22;;;;;;;8.63;3.72;;;43.90;44.20;;;;;;4966151;29;20055;-76
2023/09/11 16:23:48;;;;;;;7.07;3.45;;;44.00;44.10;;;;;;4933022;29;20316;-77
2023/09/11 16:26:14;;;;;;;7.75;3.78;;;43.80;43.70;;;;;;4965535;29;20151;-78
2023/09/11 16:28:40;;;;;;;6.10;3.80;;;43.60;45.00;;;;;;4965934;29;20074;-80
2023/09/11 16:31:11;;;;;;;8.73;3.92;;;43.10;44.70;;;;;;4947070;29;20027;-78
2023/09/11 16:33:37;;;;;;;7.88;3.40;;;43.00;44.30;;;;;;4932818;29;20031;-81
2023/09/11 16:36:09;;;;;;;8.13;3.70;;;43.60;44.40;;;;;;4965574;29;20063;-79
2023/09/11 16:38:34;;;;;;;9.80;3.60;;;43.80;44.20;;;;;;4965960;29;20082;-78
2023/09/11 16:41:09;;;;;;;10.27;4.20;;;43.60;44.30;;;;;;4932687;29;20301;-82
2023/09/11 16:43:39;;;;;;;7.22;3.85;;;43.00;44.70;;;;;;4948887;29;20047;-80
2023/09/11 16:46:05;;;;;;;6.85;3.90;;;42.80;45.40;;;;;;4948495;29;20069;-79
2023/09/11 16:48:31;;;;;;;6.90;3.90;;;42.30;45.40;;;;;;4948357;29;20023;-81
2023/09/11 16:50:59;;;;;;;7.45;3.90;;;41.10;46.00;;;;;;4932050;29;20313;-76
2023/09/11 16:53:25;;;;;;;8.40;3.95;;;39.90;47.30;;;;;;4965344;29;20065;-79
2023/09/11 16:55:51;;;;;;;8.63;4.50;;;38.60;48.70;;;;;;4942194;29;20032;-79
2023/09/11 16:58:16;;;;;;;13.75;4.35;;;37.40;50.20;;;;;;4929395;29;20133;-78
2023/09/11 17:00:42;;;;;;;8.75;4.30;;;36.50;51.60;;;;;;4929549;29;20261;-80
2023/09/11 17:03:08;;;;;;;6.90;3.95;;;36.10;52.30;;;;;;4928636;29;20053;-78
2023/09/11 17:05:34;;;;;;;9.27;4.38;;;35.80;52.90;;;;;;4932306;29;20070;-77
2023/09/11 17:07:59;;;;;;;11.38;5.13;;;35.20;53.30;;;;;;4964741;29;20038;-79
2023/09/11 17:10:25;;;;;;;8.30;4.05;;;35.10;54.20;;;;;;4940191;29;20059;-79
2023/09/11 17:12:51;;;;;;;7.93;4.18;;;34.70;54.60;;;;;;4965658;29;20016;-80
2023/09/11 17:15:17;;;;;;;8.32;4.20;;;34.50;54.90;;;;;;4964716;29;20039;-82
2023/09/11 17:17:47;;;;;;;11.77;4.50;;;34.30;55.00;;;;;;4964030;28;20321;-80
2023/09/11 17:20:15;;;;;;;7.40;3.90;;;34.10;55.90;;;;;;4948617;29;20023;-80
2023/09/11 17:22:45;;;;;;;7.50;4.45;;;33.80;56.00;;;;;;4931825;29;20061;-78
2023/09/11 17:25:28;;;;;;;6.20;4.00;;;33.60;56.60;;;;;;4964344;29;20042;-80
2023/09/11 17:27:57;;;;;;;12.35;4.53;;;33.30;57.10;;;;;;4932027;29;20046;-82
2023/09/11 17:30:29;;;;;;;6.43;4.18;;;33.10;57.50;;;;;;4961853;28;20054;-83
2023/09/11 17:32:57;;;;;;;8.77;4.53;;;32.70;58.40;;;;;;4945784;29;20039;-77
2023/09/11 17:35:26;;;;;;;9.25;4.40;;;32.40;58.70;;;;;;4945403;29;20124;-79
2023/09/11 17:37:52;;;;;;;9.90;4.40;;;32.20;59.30;;;;;;4928566;29;20026;-78
2023/09/11 17:40:20;;;;;;;11.88;7.30;;;32.00;59.60;;;;;;4945309;29;20043;-78
2023/09/11 17:42:49;;;;;;;10.68;6.30;;;31.80;59.90;;;;;;4928688;29;20031;-79
2023/09/11 17:45:15;;;;;;;15.18;6.80;;;31.50;60.70;;;;;;4912527;29;20055;-79
2023/09/11 17:47:42;;;;;;;9.38;5.95;;;31.20;61.40;;;;;;4911127;29;20039;-78
2023/09/11 17:50:08;;;;;;;10.27;5.93;;;31.00;61.80;;;;;;4927945;29;20074;-76
2023/09/11 17:52:58;;;;;;;12.38;6.68;;;30.80;61.80;;;;;;4931718;29;20237;-78
2023/09/11 17:55:48;;;;;;;10.52;5.57;;;30.70;62.30;;;;;;4945130;29;20095;-77
2023/09/11 17:58:47;;;;;;;10.13;5.68;;;30.50;62.80;;;;;;4945127;29;20027;-78
2023/09/11 18:01:13;;;;;;;10.70;6.13;;;30.40;63.10;;;;;;4928481;29;20031;-78
2023/09/11 18:03:39;;;;;;;12.88;6.35;;;30.40;63.40;;;;;;4946354;29;20019;-77
2023/09/11 18:06:05;;;;;;;19.33;11.27;;;30.30;63.50;;;;;;4935344;29;20035;-77
2023/09/11 18:08:31;;;;;;;15.23;8.38;;;30.30;63.50;;;;;;4964761;29;20046;-77
2023/09/11 18:10:56;;;;;;;10.75;6.53;;;30.20;63.20;;;;;;4930882;28;20225;-80
2023/09/11 18:13:22;;;;;;;12.82;7.80;;;30.00;63.90;;;;;;4939145;29;20031;-79
2023/09/11 18:15:49;;;;;;;13.50;6.93;;;29.90;64.20;;;;;;4945681;29;20071;-78
2023/09/11 18:18:18;;;;;;;11.65;6.95;;;29.80;64.20;;;;;;4927282;29;20046;-76
2023/09/11 18:20:45;;;;;;;13.38;7.60;;;29.80;64.30;;;;;;4928204;29;20369;-77
2023/09/11 18:23:11;;;;;;;12.35;8.07;;;29.70;65.20;;;;;;4944787;29;20071;-76
2023/09/11 18:25:38;;;;;;;11.90;6.40;;;29.50;66.30;;;;;;4928271;29;20027;-76
2023/09/11 18:28:07;;;;;;;8.85;5.72;;;29.20;66.80;;;;;;4928648;29;20026;-75
2023/09/11 18:30:36;;;;;;;10.18;6.18;;;28.80;67.10;;;;;;4915859;29;20111;-78
2023/09/11 18:33:02;;;;;;;10.38;6.55;;;28.60;67.40;;;;;;4942071;29;20062;-77
2023/09/11 18:35:43;;;;;;;14.15;5.85;;;28.50;68.00;;;;;;4950523;29;20245;-77
2023/09/11 18:38:18;;;;;;;9.75;5.82;;;28.40;67.90;;;;;;4967936;29;20305;-76
2023/09/11 18:40:44;;;;;;;11.35;5.68;;;28.20;68.50;;;;;;4967848;29;20086;-76
2023/09/11 18:44:10;;;;;;;12.38;6.50;;;28.10;68.50;;;;;;4951828;29;20069;-78
2023/09/11 18:46:38;;;;;;;12.90;6.50;;;27.80;69.40;;;;;;4930743;29;20051;-78
2023/09/11 18:49:20;;;;;;;10.43;5.72;;;27.60;70.00;;;;;;4930570;29;20099;-77
2023/09/11 18:51:55;;;;;;;12.95;6.22;;;27.50;70.20;;;;;;4930695;29;20040;-79
2023/09/11 18:54:23;;;;;;;14.77;7.00;;;27.60;70.30;;;;;;4910598;29;20489;-78
2023/09/11 18:56:50;;;;;;;10.70;6.20;;;27.50;70.40;;;;;;4927388;29;20036;-77
2023/09/11 18:59:46;;;;;;;13.23;6.63;;;27.40;71.00;;;;;;4927657;29;20452;-78